Terminal Aerodrome Forecast
Issued by NWS

Home | Current Version | Previous Version | Text Only | Print | Product List | Glossary On
Versions: 1 2 3 4 5 6 7 8 9 10 11 12
000
FTUS41 KLWX 262341 AAA
TAFMTN
TAF AMD
KMTN 262341Z 2700/2724 17007KT P6SM VCTS SCT070CB
     FM270200 17006KT P6SM SCT070
     FM270400 17005KT P6SM BKN070
     FM271100 20008KT P6SM SCT080
     FM271900 17008KT P6SM SCT060
      AMD NOT SKED 2702/2712=

USA.gov is the U.S. government's official web portal to all federal, state and local government web resources and services.